sensor_id;sensor_type;location;lat;lon;timestamp;pressure;altitude;pressure_sealevel;temperature;humidity
53858;BME280;39763;51.188;6.690;2023-02-19T00:01:23;101464.34;;;13.09;82.99
53858;BME280;39763;51.188;6.690;2023-02-19T00:02:55;101456.34;;;13.12;82.42
53858;BME280;39763;51.188;6.690;2023-02-19T00:04:28;101452.94;;;13.08;82.22
53858;BME280;39763;51.188;6.690;2023-02-19T00:06:01;101453.13;;;13.04;81.88
53858;BME280;39763;51.188;6.690;2023-02-19T00:07:33;101464.53;;;13.04;81.86
53858;BME280;39763;51.188;6.690;2023-02-19T00:09:05;101456.63;;;13.04;82.46
53858;BME280;39763;51.188;6.690;2023-02-19T00:10:36;101453.97;;;13.04;82.23
53858;BME280;39763;51.188;6.690;2023-02-19T00:12:08;101449.75;;;12.99;81.94
53858;BME280;39763;51.188;6.690;2023-02-19T00:13:40;101447.06;;;13.00;82.81
53858;BME280;39763;51.188;6.690;2023-02-19T00:15:12;101448.88;;;12.98;82.03
53858;BME280;39763;51.188;6.690;2023-02-19T00:16:44;101449.72;;;13.00;82.63
53858;BME280;39763;51.188;6.690;2023-02-19T00:18:15;101456.72;;;13.01;82.37
53858;BME280;39763;51.188;6.690;2023-02-19T00:19:47;101465.47;;;13.02;81.76
53858;BME280;39763;51.188;6.690;2023-02-19T00:21:20;101454.94;;;13.02;82.30
53858;BME280;39763;51.188;6.690;2023-02-19T00:22:52;101453.25;;;12.99;82.19
53858;BME280;39763;51.188;6.690;2023-02-19T00:24:23;101447.88;;;13.02;82.48
53858;BME280;39763;51.188;6.690;2023-02-19T00:25:55;101449.75;;;12.99;81.96
53858;BME280;39763;51.188;6.690;2023-02-19T00:27:33;101446.28;;;12.97;82.48
53858;BME280;39763;51.188;6.690;2023-02-19T00:29:05;101442.69;;;12.99;81.77
53858;BME280;39763;51.188;6.690;2023-02-19T00:30:36;101439.25;;;12.97;81.58
53858;BME280;39763;51.188;6.690;2023-02-19T00:32:08;101435.69;;;12.98;82.23
53858;BME280;39763;51.188;6.690;2023-02-19T00:33:40;101437.53;;;12.96;81.72
53858;BME280;39763;51.188;6.690;2023-02-19T00:35:11;101436.91;;;12.88;82.69
53858;BME280;39763;51.188;6.690;2023-02-19T00:36:44;101438.66;;;12.89;82.79
53858;BME280;39763;51.188;6.690;2023-02-19T00:38:16;101438.66;;;12.89;82.98
53858;BME280;39763;51.188;6.690;2023-02-19T00:39:47;101440.41;;;12.89;82.14
53858;BME280;39763;51.188;6.690;2023-02-19T00:41:21;101438.53;;;12.92;82.93
53858;BME280;39763;51.188;6.690;2023-02-19T00:42:53;101434.94;;;12.95;82.31
53858;BME280;39763;51.188;6.690;2023-02-19T00:44:24;101427.88;;;12.95;82.86
53858;BME280;39763;51.188;6.690;2023-02-19T00:45:56;101428.78;;;12.94;82.47
53858;BME280;39763;51.188;6.690;2023-02-19T00:47:27;101427.09;;;12.92;82.74
53858;BME280;39763;51.188;6.690;2023-02-19T00:48:59;101423.81;;;12.85;82.96
53858;BME280;39763;51.188;6.690;2023-02-19T00:50:31;101421.47;;;12.76;83.01
53858;BME280;39763;51.188;6.690;2023-02-19T00:52:04;101435.41;;;12.80;83.00
53858;BME280;39763;51.188;6.690;2023-02-19T00:53:35;101429.91;;;12.87;83.23
53858;BME280;39763;51.188;6.690;2023-02-19T00:55:07;101431.53;;;12.91;82.55
53858;BME280;39763;51.188;6.690;2023-02-19T00:56:38;101431.34;;;12.97;82.86
53858;BME280;39763;51.188;6.690;2023-02-19T00:58:10;101433.97;;;12.97;82.23
53858;BME280;39763;51.188;6.690;2023-02-19T00:59:42;101424.28;;;12.98;82.12
53858;BME280;39763;51.188;6.690;2023-02-19T01:01:14;101434.88;;;12.96;82.51
53858;BME280;39763;51.188;6.690;2023-02-19T01:02:46;101425.03;;;13.03;81.82
53858;BME280;39763;51.188;6.690;2023-02-19T01:04:17;101418.94;;;13.01;81.64
53858;BME280;39763;51.188;6.690;2023-02-19T01:05:49;101418.88;;;13.02;80.91
53858;BME280;39763;51.188;6.690;2023-02-19T01:07:22;101419.03;;;12.98;81.76
53858;BME280;39763;51.188;6.690;2023-02-19T01:08:54;101419.16;;;12.93;81.54
53858;BME280;39763;51.188;6.690;2023-02-19T01:10:26;101420.78;;;12.97;81.77
53858;BME280;39763;51.188;6.690;2023-02-19T01:11:58;101417.97;;;13.03;81.55
53858;BME280;39763;51.188;6.690;2023-02-19T01:13:30;101416.06;;;13.07;81.45
53858;BME280;39763;51.188;6.690;2023-02-19T01:15:02;101417.94;;;13.05;81.16
53858;BME280;39763;51.188;6.690;2023-02-19T01:16:33;101417.09;;;13.03;81.19
53858;BME280;39763;51.188;6.690;2023-02-19T01:18:06;101414.31;;;13.07;81.10
53858;BME280;39763;51.188;6.690;2023-02-19T01:19:43;101418.63;;;13.10;80.91
53858;BME280;39763;51.188;6.690;2023-02-19T01:21:16;101417.97;;;13.03;80.47
53858;BME280;39763;51.188;6.690;2023-02-19T01:22:51;101420.59;;;13.03;80.87
53858;BME280;39763;51.188;6.690;2023-02-19T01:24:22;101421.50;;;13.02;81.35
53858;BME280;39763;51.188;6.690;2023-02-19T01:25:54;101415.34;;;13.03;80.95
53858;BME280;39763;51.188;6.690;2023-02-19T01:27:26;101416.03;;;13.08;81.24
53858;BME280;39763;51.188;6.690;2023-02-19T01:28:57;101419.47;;;13.11;80.50
53858;BME280;39763;51.188;6.690;2023-02-19T01:30:29;101422.03;;;13.14;79.95
53858;BME280;39763;51.188;6.690;2023-02-19T01:32:01;101423.84;;;13.12;80.05
53858;BME280;39763;51.188;6.690;2023-02-19T01:33:33;101421.22;;;13.12;80.32
53858;BME280;39763;51.188;6.690;2023-02-19T01:35:05;101422.03;;;13.14;80.49
53858;BME280;39763;51.188;6.690;2023-02-19T01:36:37;101414.91;;;13.17;80.59
53858;BME280;39763;51.188;6.690;2023-02-19T01:38:12;101430.81;;;13.14;79.93
53858;BME280;39763;51.188;6.690;2023-02-19T01:39:44;101425.50;;;13.16;80.34
53858;BME280;39763;51.188;6.690;2023-02-19T01:41:16;101428.09;;;13.17;80.40
53858;BME280;39763;51.188;6.690;2023-02-19T01:42:48;101418.38;;;13.19;79.44
53858;BME280;39763;51.188;6.690;2023-02-19T01:46:10;101415.03;;;13.13;79.48
53858;BME280;39763;51.188;6.690;2023-02-19T01:47:42;101415.88;;;13.15;79.57
53858;BME280;39763;51.188;6.690;2023-02-19T01:49:15;101421.22;;;13.12;79.56
53858;BME280;39763;51.188;6.690;2023-02-19T01:50:50;101415.97;;;13.10;79.81
53858;BME280;39763;51.188;6.690;2023-02-19T01:52:24;101427.38;;;13.11;80.06
53858;BME280;39763;51.188;6.690;2023-02-19T01:53:59;101413.38;;;13.08;79.94
53858;BME280;39763;51.188;6.690;2023-02-19T01:55:33;101428.22;;;13.13;79.71
53858;BME280;39763;51.188;6.690;2023-02-19T01:57:05;101431.19;;;13.02;79.21
53858;BME280;39763;51.188;6.690;2023-02-19T01:58:38;101428.88;;;12.91;79.47
53858;BME280;39763;51.188;6.690;2023-02-19T02:00:12;101430.94;;;12.82;80.55
53858;BME280;39763;51.188;6.690;2023-02-19T02:01:45;101429.28;;;12.79;80.93
53858;BME280;39763;51.188;6.690;2023-02-19T02:03:17;101430.19;;;12.78;81.06
53858;BME280;39763;51.188;6.690;2023-02-19T02:04:49;101438.25;;;12.74;81.44
53858;BME280;39763;51.188;6.690;2023-02-19T02:06:21;101435.66;;;12.72;81.84
53858;BME280;39763;51.188;6.690;2023-02-19T02:07:54;101434.78;;;12.71;81.64
53858;BME280;39763;51.188;6.690;2023-02-19T02:09:45;101437.22;;;12.78;82.21
53858;BME280;39763;51.188;6.690;2023-02-19T02:11:36;101434.09;;;12.65;81.94
53858;BME280;39763;51.188;6.690;2023-02-19T02:13:09;101430.00;;;12.56;83.13
53858;BME280;39763;51.188;6.690;2023-02-19T02:14:42;101434.44;;;12.54;83.01
53858;BME280;39763;51.188;6.690;2023-02-19T02:16:21;101440.84;;;12.46;84.07
53858;BME280;39763;51.188;6.690;2023-02-19T02:17:55;101425.75;;;12.51;83.29
53858;BME280;39763;51.188;6.690;2023-02-19T02:19:34;101441.94;;;12.39;84.12
53858;BME280;39763;51.188;6.690;2023-02-19T02:21:17;101452.38;;;12.42;84.67
53858;BME280;39763;51.188;6.690;2023-02-19T02:22:57;101445.34;;;12.42;84.19
53858;BME280;39763;51.188;6.690;2023-02-19T02:24:36;101442.78;;;12.39;85.00
53858;BME280;39763;51.188;6.690;2023-02-19T02:26:20;101437.59;;;12.36;84.54
53858;BME280;39763;51.188;6.690;2023-02-19T02:27:56;101444.09;;;12.24;85.22
53858;BME280;39763;51.188;6.690;2023-02-19T02:29:51;101441.31;;;12.30;85.34
53858;BME280;39763;51.188;6.690;2023-02-19T02:31:25;101433.13;;;12.40;85.00
53858;BME280;39763;51.188;6.690;2023-02-19T02:33:00;101430.56;;;12.36;85.04
53858;BME280;39763;51.188;6.690;2023-02-19T02:34:35;101431.31;;;12.42;85.30
53858;BME280;39763;51.188;6.690;2023-02-19T02:36:11;101424.31;;;12.41;85.19
53858;BME280;39763;51.188;6.690;2023-02-19T02:37:46;101433.03;;;12.43;84.95
53858;BME280;39763;51.188;6.690;2023-02-19T02:39:19;101424.13;;;12.47;84.82
53858;BME280;39763;51.188;6.690;2023-02-19T02:40:52;101423.16;;;12.49;84.52
53858;BME280;39763;51.188;6.690;2023-02-19T02:42:24;101423.22;;;12.48;84.71
53858;BME280;39763;51.188;6.690;2023-02-19T02:44:07;101424.88;;;12.50;84.21
53858;BME280;39763;51.188;6.690;2023-02-19T02:45:40;101428.44;;;12.49;83.68
53858;BME280;39763;51.188;6.690;2023-02-19T02:47:27;101423.94;;;12.53;83.65
53858;BME280;39763;51.188;6.690;2023-02-19T02:49:17;101428.22;;;12.57;84.15
53858;BME280;39763;51.188;6.690;2023-02-19T02:50:51;101430.06;;;12.53;83.80
53858;BME280;39763;51.188;6.690;2023-02-19T02:52:24;101427.53;;;12.50;83.67
53858;BME280;39763;51.188;6.690;2023-02-19T02:54:15;101424.84;;;12.52;83.93
53858;BME280;39763;51.188;6.690;2023-02-19T02:56:11;101433.91;;;12.43;84.55
53858;BME280;39763;51.188;6.690;2023-02-19T02:57:44;101421.69;;;12.41;84.38
53858;BME280;39763;51.188;6.690;2023-02-19T02:59:16;101445.38;;;12.41;84.58
53858;BME280;39763;51.188;6.690;2023-02-19T03:00:51;101443.75;;;12.36;84.04
53858;BME280;39763;51.188;6.690;2023-02-19T03:02:44;101443.81;;;12.33;85.01
53858;BME280;39763;51.188;6.690;2023-02-19T03:04:17;101447.28;;;12.35;83.99
53858;BME280;39763;51.188;6.690;2023-02-19T03:05:51;101444.81;;;12.31;85.37
53858;BME280;39763;51.188;6.690;2023-02-19T03:07:28;101437.09;;;12.23;85.66
53858;BME280;39763;51.188;6.690;2023-02-19T03:09:05;101441.31;;;12.30;85.24
53858;BME280;39763;51.188;6.690;2023-02-19T03:10:39;101444.66;;;12.35;85.87
53858;BME280;39763;51.188;6.690;2023-02-19T03:12:12;101441.03;;;12.40;85.31
53858;BME280;39763;51.188;6.690;2023-02-19T03:14:05;101450.47;;;12.47;85.33
53858;BME280;39763;51.188;6.690;2023-02-19T03:16:00;101451.28;;;12.49;84.85
53858;BME280;39763;51.188;6.690;2023-02-19T03:17:52;101454.91;;;12.46;84.18
53858;BME280;39763;51.188;6.690;2023-02-19T03:19:44;101453.22;;;12.44;84.04
53858;BME280;39763;51.188;6.690;2023-02-19T03:21:20;101460.31;;;12.40;83.87
53858;BME280;39763;51.188;6.690;2023-02-19T03:22:53;101449.91;;;12.35;84.43
53858;BME280;39763;51.188;6.690;2023-02-19T03:24:27;101456.88;;;12.38;83.83
53858;BME280;39763;51.188;6.690;2023-02-19T03:26:18;101466.00;;;12.26;84.63
53858;BME280;39763;51.188;6.690;2023-02-19T03:27:54;101470.28;;;12.30;84.52
53858;BME280;39763;51.188;6.690;2023-02-19T03:29:29;101467.69;;;12.29;83.61
53858;BME280;39763;51.188;6.690;2023-02-19T03:31:07;101474.56;;;12.33;83.85
53858;BME280;39763;51.188;6.690;2023-02-19T03:32:41;101468.34;;;12.35;84.15
53858;BME280;39763;51.188;6.690;2023-02-19T03:34:16;101469.22;;;12.36;83.78
53858;BME280;39763;51.188;6.690;2023-02-19T03:35:52;101470.16;;;12.33;83.28
53858;BME280;39763;51.188;6.690;2023-02-19T03:37:28;101465.72;;;12.35;83.39
53858;BME280;39763;51.188;6.690;2023-02-19T03:39:02;101473.63;;;12.35;83.73
53858;BME280;39763;51.188;6.690;2023-02-19T03:40:37;101471.03;;;12.34;83.46
53858;BME280;39763;51.188;6.690;2023-02-19T03:42:14;101471.81;;;12.38;83.60
53858;BME280;39763;51.188;6.690;2023-02-19T03:43:49;101473.47;;;12.42;82.86
53858;BME280;39763;51.188;6.690;2023-02-19T03:45:25;101466.44;;;12.42;82.75
53858;BME280;39763;51.188;6.690;2023-02-19T03:47:03;101473.66;;;12.34;83.02
53858;BME280;39763;51.188;6.690;2023-02-19T03:48:40;101480.00;;;12.28;82.66
53858;BME280;39763;51.188;6.690;2023-02-19T03:50:17;101475.66;;;12.26;83.42
53858;BME280;39763;51.188;6.690;2023-02-19T03:51:52;101476.41;;;12.31;83.55
53858;BME280;39763;51.188;6.690;2023-02-19T03:53:27;101478.72;;;12.42;83.58
53858;BME280;39763;51.188;6.690;2023-02-19T03:55:02;101473.41;;;12.43;83.11
53858;BME280;39763;51.188;6.690;2023-02-19T03:56:36;101483.91;;;12.45;82.48
53858;BME280;39763;51.188;6.690;2023-02-19T03:58:11;101486.56;;;12.45;82.63
53858;BME280;39763;51.188;6.690;2023-02-19T03:59:48;101489.00;;;12.51;82.40
53858;BME280;39763;51.188;6.690;2023-02-19T04:01:23;101489.97;;;12.47;82.25
53858;BME280;39763;51.188;6.690;2023-02-19T04:03:01;101486.41;;;12.49;81.73
53858;BME280;39763;51.188;6.690;2023-02-19T04:04:37;101493.22;;;12.56;82.74
53858;BME280;39763;51.188;6.690;2023-02-19T04:06:10;101488.81;;;12.57;81.58
53858;BME280;39763;51.188;6.690;2023-02-19T04:07:45;101501.25;;;12.52;81.30
53858;BME280;39763;51.188;6.690;2023-02-19T04:09:23;101492.41;;;12.54;81.68
53858;BME280;39763;51.188;6.690;2023-02-19T04:11:03;101499.28;;;12.60;81.87
53858;BME280;39763;51.188;6.690;2023-02-19T04:12:38;101499.91;;;12.68;81.59
53858;BME280;39763;51.188;6.690;2023-02-19T04:14:12;101506.88;;;12.70;81.53
53858;BME280;39763;51.188;6.690;2023-02-19T04:15:44;101499.88;;;12.69;80.77
53858;BME280;39763;51.188;6.690;2023-02-19T04:17:23;101513.88;;;12.71;81.16
53858;BME280;39763;51.188;6.690;2023-02-19T04:18:59;101510.44;;;12.68;80.66
53858;BME280;39763;51.188;6.690;2023-02-19T04:20:33;101518.53;;;12.62;80.10
53858;BME280;39763;51.188;6.690;2023-02-19T04:22:06;101511.44;;;12.64;81.18
53858;BME280;39763;51.188;6.690;2023-02-19T04:23:41;101518.41;;;12.66;81.46
53858;BME280;39763;51.188;6.690;2023-02-19T04:25:13;101523.72;;;12.65;80.35
53858;BME280;39763;51.188;6.690;2023-02-19T04:26:45;101524.03;;;12.54;80.22
53858;BME280;39763;51.188;6.690;2023-02-19T04:28:17;101525.00;;;12.50;80.70
53858;BME280;39763;51.188;6.690;2023-02-19T04:29:49;101529.34;;;12.53;80.58
53858;BME280;39763;51.188;6.690;2023-02-19T04:31:21;101531.06;;;12.54;80.94
53858;BME280;39763;51.188;6.690;2023-02-19T04:32:53;101527.59;;;12.52;81.05
53858;BME280;39763;51.188;6.690;2023-02-19T04:34:26;101531.19;;;12.49;80.81
53858;BME280;39763;51.188;6.690;2023-02-19T04:35:58;101524.34;;;12.44;80.90
53858;BME280;39763;51.188;6.690;2023-02-19T04:37:30;101533.22;;;12.40;81.21
53858;BME280;39763;51.188;6.690;2023-02-19T04:39:02;101528.06;;;12.35;81.36
53858;BME280;39763;51.188;6.690;2023-02-19T04:40:33;101535.88;;;12.40;81.81
53858;BME280;39763;51.188;6.690;2023-02-19T04:42:06;101535.75;;;12.44;80.94
53858;BME280;39763;51.188;6.690;2023-02-19T04:43:38;101531.47;;;12.40;80.85
53858;BME280;39763;51.188;6.690;2023-02-19T04:45:09;101546.47;;;12.36;81.19
53858;BME280;39763;51.188;6.690;2023-02-19T04:46:43;101550.00;;;12.35;81.44
53858;BME280;39763;51.188;6.690;2023-02-19T04:48:14;101544.81;;;12.32;81.04
53858;BME280;39763;51.188;6.690;2023-02-19T04:49:47;101558.19;;;12.26;81.99
53858;BME280;39763;51.188;6.690;2023-02-19T04:51:23;101553.84;;;12.24;81.95
53858;BME280;39763;51.188;6.690;2023-02-19T04:52:55;101556.38;;;12.28;81.52
53858;BME280;39763;51.188;6.690;2023-02-19T04:54:26;101547.56;;;12.29;81.80
53858;BME280;39763;51.188;6.690;2023-02-19T04:56:04;101557.47;;;12.20;81.99
53858;BME280;39763;51.188;6.690;2023-02-19T04:57:36;101561.03;;;12.17;82.03
53858;BME280;39763;51.188;6.690;2023-02-19T04:59:07;101554.78;;;12.21;83.11
53858;BME280;39763;51.188;6.690;2023-02-19T05:00:40;101563.44;;;12.26;82.60
53858;BME280;39763;51.188;6.690;2023-02-19T05:02:11;101558.25;;;12.23;82.95
53858;BME280;39763;51.188;6.690;2023-02-19T05:03:43;101565.31;;;12.21;82.50
53858;BME280;39763;51.188;6.690;2023-02-19T05:05:16;101563.56;;;12.22;82.76
53858;BME280;39763;51.188;6.690;2023-02-19T05:06:48;101572.28;;;12.24;82.84
53858;BME280;39763;51.188;6.690;2023-02-19T05:08:20;101568.75;;;12.25;81.92
53858;BME280;39763;51.188;6.690;2023-02-19T05:09:51;101569.56;;;12.27;82.72
53858;BME280;39763;51.188;6.690;2023-02-19T05:11:23;101574.84;;;12.27;82.71
53858;BME280;39763;51.188;6.690;2023-02-19T05:12:55;101575.63;;;12.30;82.29
53858;BME280;39763;51.188;6.690;2023-02-19T05:14:28;101573.06;;;12.27;81.99
53858;BME280;39763;51.188;6.690;2023-02-19T05:16:00;101585.53;;;12.21;81.86
53858;BME280;39763;51.188;6.690;2023-02-19T05:17:32;101581.41;;;12.11;82.27
53858;BME280;39763;51.188;6.690;2023-02-19T05:19:04;101583.97;;;12.14;82.18
53858;BME280;39763;51.188;6.690;2023-02-19T05:20:37;101584.84;;;12.14;82.45
53858;BME280;39763;51.188;6.690;2023-02-19T05:22:09;101588.41;;;12.12;82.63
53858;BME280;39763;51.188;6.690;2023-02-19T05:23:41;101591.00;;;12.13;82.62
53858;BME280;39763;51.188;6.690;2023-02-19T05:25:12;101589.25;;;12.14;82.16
53858;BME280;39763;51.188;6.690;2023-02-19T05:26:44;101597.19;;;12.12;82.47
53858;BME280;39763;51.188;6.690;2023-02-19T05:28:16;101601.66;;;12.09;82.46
53858;BME280;39763;51.188;6.690;2023-02-19T05:29:47;101607.72;;;12.12;83.33
53858;BME280;39763;51.188;6.690;2023-02-19T05:31:19;101611.06;;;12.17;82.92
53858;BME280;39763;51.188;6.690;2023-02-19T05:32:51;101597.00;;;12.18;82.44
53858;BME280;39763;51.188;6.690;2023-02-19T05:34:23;101599.78;;;12.14;81.86
53858;BME280;39763;51.188;6.690;2023-02-19T05:35:56;101606.06;;;12.08;82.27
53858;BME280;39763;51.188;6.690;2023-02-19T05:37:27;101613.13;;;12.06;82.60
53858;BME280;39763;51.188;6.690;2023-02-19T05:38:59;101607.94;;;12.03;83.25
53858;BME280;39763;51.188;6.690;2023-02-19T05:40:30;101611.38;;;12.05;83.78
53858;BME280;39763;51.188;6.690;2023-02-19T05:42:02;101614.06;;;12.04;83.08
53858;BME280;39763;51.188;6.690;2023-02-19T05:43:34;101617.66;;;12.01;83.49
53858;BME280;39763;51.188;6.690;2023-02-19T05:45:06;101609.78;;;11.99;83.12
53858;BME280;39763;51.188;6.690;2023-02-19T05:46:37;101613.44;;;11.94;82.65
53858;BME280;39763;51.188;6.690;2023-02-19T05:48:09;101625.75;;;11.92;83.27
53858;BME280;39763;51.188;6.690;2023-02-19T05:49:41;101631.84;;;11.94;82.86
53858;BME280;39763;51.188;6.690;2023-02-19T05:51:15;101634.47;;;11.95;82.58
53858;BME280;39763;51.188;6.690;2023-02-19T05:52:46;101630.97;;;11.95;83.40
53858;BME280;39763;51.188;6.690;2023-02-19T05:54:18;101630.09;;;11.94;82.70
53858;BME280;39763;51.188;6.690;2023-02-19T05:55:50;101627.47;;;11.94;83.13
53858;BME280;39763;51.188;6.690;2023-02-19T05:57:21;101629.13;;;11.98;83.02
53858;BME280;39763;51.188;6.690;2023-02-19T05:58:53;101628.13;;;12.02;82.62
53858;BME280;39763;51.188;6.690;2023-02-19T06:00:25;101625.44;;;12.04;82.31
53858;BME280;39763;51.188;6.690;2023-02-19T06:01:57;101626.63;;;11.92;82.67
53858;BME280;39763;51.188;6.690;2023-02-19T06:03:29;101635.59;;;11.85;82.80
53858;BME280;39763;51.188;6.690;2023-02-19T06:05:00;101639.09;;;11.86;82.81
53858;BME280;39763;51.188;6.690;2023-02-19T06:06:33;101639.09;;;11.86;83.33
53858;BME280;39763;51.188;6.690;2023-02-19T06:08:05;101634.56;;;11.91;83.20
53858;BME280;39763;51.188;6.690;2023-02-19T06:09:37;101637.19;;;11.91;82.34
53858;BME280;39763;51.188;6.690;2023-02-19T06:11:08;101648.72;;;11.87;83.25
53858;BME280;39763;51.188;6.690;2023-02-19T06:12:40;101638.94;;;11.92;82.42
53858;BME280;39763;51.188;6.690;2023-02-19T06:14:12;101641.34;;;12.01;82.60
53858;BME280;39763;51.188;6.690;2023-02-19T06:15:44;101637.75;;;12.04;82.40
53858;BME280;39763;51.188;6.690;2023-02-19T06:17:16;101642.31;;;11.97;81.42
53858;BME280;39763;51.188;6.690;2023-02-19T06:18:48;101646.72;;;11.96;81.92
53858;BME280;39763;51.188;6.690;2023-02-19T06:20:19;101651.06;;;11.99;82.24
53858;BME280;39763;51.188;6.690;2023-02-19T06:21:52;101640.63;;;11.94;82.53
53858;BME280;39763;51.188;6.690;2023-02-19T06:23:26;101653.16;;;11.85;82.34
53858;BME280;39763;51.188;6.690;2023-02-19T06:24:57;101651.50;;;11.79;82.36
53858;BME280;39763;51.188;6.690;2023-02-19T06:26:29;101656.72;;;11.82;82.73
53858;BME280;39763;51.188;6.690;2023-02-19T06:28:00;101659.25;;;11.87;82.28
53858;BME280;39763;51.188;6.690;2023-02-19T06:29:32;101650.41;;;11.88;82.80
53858;BME280;39763;51.188;6.690;2023-02-19T06:31:04;101655.53;;;11.95;82.45
53858;BME280;39763;51.188;6.690;2023-02-19T06:32:35;101650.16;;;12.00;82.09
53858;BME280;39763;51.188;6.690;2023-02-19T06:34:07;101662.28;;;12.06;82.43
53858;BME280;39763;51.188;6.690;2023-02-19T06:35:39;101661.59;;;11.99;81.71
53858;BME280;39763;51.188;6.690;2023-02-19T06:37:11;101664.28;;;11.96;81.88
53858;BME280;39763;51.188;6.690;2023-02-19T06:38:43;101667.81;;;11.95;81.83
53858;BME280;39763;51.188;6.690;2023-02-19T06:40:15;101666.16;;;11.91;81.93
53858;BME280;39763;51.188;6.690;2023-02-19T06:41:47;101661.75;;;11.91;81.90
53858;BME280;39763;51.188;6.690;2023-02-19T06:43:18;101681.94;;;11.91;81.96
53858;BME280;39763;51.188;6.690;2023-02-19T06:44:50;101677.69;;;11.87;81.57
53858;BME280;39763;51.188;6.690;2023-02-19T06:46:21;101675.03;;;11.87;81.86
53858;BME280;39763;51.188;6.690;2023-02-19T06:47:53;101678.44;;;11.90;82.35
53858;BME280;39763;51.188;6.690;2023-02-19T06:49:25;101680.91;;;11.98;82.02
53858;BME280;39763;51.188;6.690;2023-02-19T06:50:56;101679.13;;;12.00;82.10
53858;BME280;39763;51.188;6.690;2023-02-19T06:52:29;101672.84;;;12.04;81.59
53858;BME280;39763;51.188;6.690;2023-02-19T06:54:01;101681.66;;;12.03;81.24
53858;BME280;39763;51.188;6.690;2023-02-19T06:55:33;101685.25;;;12.00;81.29
53858;BME280;39763;51.188;6.690;2023-02-19T06:57:04;101691.44;;;11.98;81.80
53858;BME280;39763;51.188;6.690;2023-02-19T06:58:36;101694.94;;;11.98;81.90
53858;BME280;39763;51.188;6.690;2023-02-19T07:00:08;101694.06;;;11.98;81.24
53858;BME280;39763;51.188;6.690;2023-02-19T07:01:40;101703.75;;;11.97;81.10
53858;BME280;39763;51.188;6.690;2023-02-19T07:03:12;101695.03;;;11.94;81.41
53858;BME280;39763;51.188;6.690;2023-02-19T07:04:43;101708.16;;;11.95;80.79
53858;BME280;39763;51.188;6.690;2023-02-19T07:06:15;101715.41;;;11.86;80.42
53858;BME280;39763;51.188;6.690;2023-02-19T07:07:48;101724.28;;;11.82;81.18
53858;BME280;39763;51.188;6.690;2023-02-19T07:09:19;101717.31;;;11.79;80.75
53858;BME280;39763;51.188;6.690;2023-02-19T07:10:54;101724.28;;;11.82;81.28
53858;BME280;39763;51.188;6.690;2023-02-19T07:12:26;101727.81;;;11.81;81.19
53858;BME280;39763;51.188;6.690;2023-02-19T07:13:58;101717.38;;;11.75;81.17
53858;BME280;39763;51.188;6.690;2023-02-19T07:15:31;101721.03;;;11.69;81.38
53858;BME280;39763;51.188;6.690;2023-02-19T07:17:02;101717.72;;;11.59;81.30
53858;BME280;39763;51.188;6.690;2023-02-19T07:18:34;101718.72;;;11.54;81.18
53858;BME280;39763;51.188;6.690;2023-02-19T07:20:05;101726.44;;;11.61;81.37
53858;BME280;39763;51.188;6.690;2023-02-19T07:21:37;101728.84;;;11.72;82.28
53858;BME280;39763;51.188;6.690;2023-02-19T07:23:10;101727.91;;;11.76;82.12
53858;BME280;39763;51.188;6.690;2023-02-19T07:24:42;101731.41;;;11.77;81.32
53858;BME280;39763;51.188;6.690;2023-02-19T07:26:14;101738.28;;;11.84;81.05
53858;BME280;39763;51.188;6.690;2023-02-19T07:27:46;101739.03;;;11.89;81.13
53858;BME280;39763;51.188;6.690;2023-02-19T07:29:18;101741.53;;;11.95;80.51
53858;BME280;39763;51.188;6.690;2023-02-19T07:30:50;101746.78;;;11.95;80.14
53858;BME280;39763;51.188;6.690;2023-02-19T07:32:21;101750.31;;;11.94;80.13
53858;BME280;39763;51.188;6.690;2023-02-19T07:33:53;101758.13;;;11.98;80.50
53858;BME280;39763;51.188;6.690;2023-02-19T07:35:25;101752.88;;;11.98;80.43
53858;BME280;39763;51.188;6.690;2023-02-19T07:36:57;101756.31;;;12.00;79.76
53858;BME280;39763;51.188;6.690;2023-02-19T07:38:30;101764.28;;;11.97;79.33
53858;BME280;39763;51.188;6.690;2023-02-19T07:40:02;101766.13;;;11.94;79.72
53858;BME280;39763;51.188;6.690;2023-02-19T07:41:33;101762.72;;;11.89;80.33
53858;BME280;39763;51.188;6.690;2023-02-19T07:43:05;101772.28;;;11.93;79.73
53858;BME280;39763;51.188;6.690;2023-02-19T07:44:36;101764.41;;;11.91;80.08
53858;BME280;39763;51.188;6.690;2023-02-19T07:46:09;101780.34;;;11.87;80.18
53858;BME280;39763;51.188;6.690;2023-02-19T07:47:42;101783.81;;;11.87;80.47
53858;BME280;39763;51.188;6.690;2023-02-19T07:49:14;101780.28;;;11.88;79.76
53858;BME280;39763;51.188;6.690;2023-02-19T07:50:49;101774.91;;;11.93;80.45
53858;BME280;39763;51.188;6.690;2023-02-19T07:52:21;101786.31;;;11.93;80.02
53858;BME280;39763;51.188;6.690;2023-02-19T07:53:54;101788.25;;;11.85;80.64
53858;BME280;39763;51.188;6.690;2023-02-19T07:55:26;101789.13;;;11.86;80.29
53858;BME280;39763;51.188;6.690;2023-02-19T07:56:57;101793.56;;;11.84;80.49
53858;BME280;39763;51.188;6.690;2023-02-19T07:58:30;101796.28;;;11.79;80.98
53858;BME280;39763;51.188;6.690;2023-02-19T08:00:02;101799.81;;;11.77;81.21
53858;BME280;39763;51.188;6.690;2023-02-19T08:01:42;101794.59;;;11.74;81.32
53858;BME280;39763;51.188;6.690;2023-02-19T08:03:33;101806.00;;;11.76;80.87
53858;BME280;39763;51.188;6.690;2023-02-19T08:05:05;101801.50;;;11.81;81.24
53858;BME280;39763;51.188;6.690;2023-02-19T08:06:37;101811.09;;;11.83;81.15
53858;BME280;39763;51.188;6.690;2023-02-19T08:08:09;101810.22;;;11.84;81.31
53858;BME280;39763;51.188;6.690;2023-02-19T08:09:42;101801.31;;;11.88;81.21
53858;BME280;39763;51.188;6.690;2023-02-19T08:11:14;101813.69;;;11.86;80.33
53858;BME280;39763;51.188;6.690;2023-02-19T08:13:04;101818.88;;;11.88;80.88